Dansville, Michigan
Current Conditions -  °F | °C
As of 2:14 PM on Monday 22 Dec 2014 (Local Time) from KTEW Reporting Station
Overcast Overcast  
Wind Chill: 31°   Ceiling: 10000
Heat Index: 37°   Visibility: 10mi
Dew Point: 28°   Wind: 7mph
Humidity: 71%   Direction: 140°SE
Pressure: 29.92"   Gusts: NA
Location:  42.56°N, 84.3°W
Report Text: KTEW 221914Z AUTO 14006KT 10SM SCT070 OVC100 03/M02 A2992 RMK AO2 T00271021
Loading
Personal Weather Stations






























Interactive Weather Map New forecast layout! Learn more

10-Day Weather Forecast

Advertisements
Track Severe Weather on mobile